sensor_id;sensor_type;location;lat;lon;timestamp;temperature;humidity
75466;HTU21D;64049;46.290;44.240;2023-03-14T21:54:49;0.63;63.68
75466;HTU21D;64049;46.290;44.240;2023-03-14T21:57:15;0.53;63.66
75466;HTU21D;64049;46.290;44.240;2023-03-14T21:59:43;0.45;63.82
75466;HTU21D;64049;46.290;44.240;2023-03-14T22:02:17;0.42;64.11
75466;HTU21D;64049;46.290;44.240;2023-03-14T22:04:43;0.35;64.11
75466;HTU21D;64049;46.290;44.240;2023-03-14T22:14:48;0.19;64.85
75466;HTU21D;64049;46.290;44.240;2023-03-14T22:17:14;0.17;64.94
75466;HTU21D;64049;46.290;44.240;2023-03-14T22:19:41;0.14;64.79
75466;HTU21D;64049;46.290;44.240;2023-03-14T22:22:07;0.10;64.67
75466;HTU21D;64049;46.290;44.240;2023-03-14T22:24:33;0.10;65.05
75466;HTU21D;64049;46.290;44.240;2023-03-14T22:26:58;0.12;65.40
75466;HTU21D;64049;46.290;44.240;2023-03-14T22:29:25;0.12;65.28
75466;HTU21D;64049;46.290;44.240;2023-03-14T22:31:51;0.13;65.76
75466;HTU21D;64049;46.290;44.240;2023-03-14T22:34:17;0.10;65.63
75466;HTU21D;64049;46.290;44.240;2023-03-14T22:36:43;0.08;65.67
75466;HTU21D;64049;46.290;44.240;2023-03-14T22:39:09;0.04;65.60
75466;HTU21D;64049;46.290;44.240;2023-03-14T22:41:35;0.01;65.77
75466;HTU21D;64049;46.290;44.240;2023-03-14T22:44:01;-0.03;65.80
75466;HTU21D;64049;46.290;44.240;2023-03-14T22:46:27;-0.08;65.89
75466;HTU21D;64049;46.290;44.240;2023-03-14T22:48:52;-0.12;65.85
75466;HTU21D;64049;46.290;44.240;2023-03-14T22:51:18;-0.14;66.65
75466;HTU21D;64049;46.290;44.240;2023-03-14T22:53:44;-0.12;66.88
75466;HTU21D;64049;46.290;44.240;2023-03-14T22:56:11;-0.13;67.12
75466;HTU21D;64049;46.290;44.240;2023-03-14T22:58:37;-0.13;67.57
75466;HTU21D;64049;46.290;44.240;2023-03-14T23:01:04;-0.14;67.71
75466;HTU21D;64049;46.290;44.240;2023-03-14T23:03:30;-0.17;67.84
75466;HTU21D;64049;46.290;44.240;2023-03-14T23:05:56;-0.19;68.20
75466;HTU21D;64049;46.290;44.240;2023-03-14T23:08:23;-0.23;68.23
75466;HTU21D;64049;46.290;44.240;2023-03-14T23:10:49;-0.27;68.27
75466;HTU21D;64049;46.290;44.240;2023-03-14T23:13:18;-0.29;68.60
75466;HTU21D;64049;46.290;44.240;2023-03-14T23:15:44;-0.36;68.66
75466;HTU21D;64049;46.290;44.240;2023-03-14T23:18:11;-0.40;68.97
75466;HTU21D;64049;46.290;44.240;2023-03-14T23:20:39;-0.45;69.23
75466;HTU21D;64049;46.290;44.240;2023-03-14T23:23:05;-0.50;69.26
75466;HTU21D;64049;46.290;44.240;2023-03-14T23:25:34;-0.52;69.78
75466;HTU21D;64049;46.290;44.240;2023-03-14T23:28:01;-0.53;69.59
75466;HTU21D;64049;46.290;44.240;2023-03-14T23:30:27;-0.55;69.92
75466;HTU21D;64049;46.290;44.240;2023-03-14T23:32:53;-0.56;70.07
75466;HTU21D;64049;46.290;44.240;2023-03-14T23:35:19;-0.56;70.10
75466;HTU21D;64049;46.290;44.240;2023-03-14T23:37:45;-0.55;70.44
75466;HTU21D;64049;46.290;44.240;2023-03-14T23:40:11;-0.56;70.32
75466;HTU21D;64049;46.290;44.240;2023-03-14T23:42:39;-0.58;70.37
75466;HTU21D;64049;46.290;44.240;2023-03-14T23:45:05;-0.59;70.55
75466;HTU21D;64049;46.290;44.240;2023-03-14T23:47:31;-0.59;70.76
75466;HTU21D;64049;46.290;44.240;2023-03-14T23:49:57;-0.58;70.84
75466;HTU21D;64049;46.290;44.240;2023-03-14T23:52:23;-0.58;70.85
75466;HTU21D;64049;46.290;44.240;2023-03-14T23:54:49;-0.57;71.37
75466;HTU21D;64049;46.290;44.240;2023-03-14T23:57:15;-0.61;71.12
75466;HTU21D;64049;46.290;44.240;2023-03-14T23:59:41;-0.61;71.38
